Time;durP1;ratioP1;P1;durP2;ratioP2;P2;SDS_P1;SDS_P2;PMS_P1;PMS_P2;Temp;Humidity;BMP_temperature;BMP_pressure;BME280_temperature;BME280_humidity;BME280_pressure;Samples;Min_cycle;Max_cycle;Signal;HPM_P1;HPM_P2
2022/10/04 00:00:45;;;;;;;5.30;2.88;;;;;;;12.45;83.77;102456.41;5035186;27;98856;-31
2022/10/04 00:03:19;;;;;;;8.35;3.15;;;;;;;12.43;83.81;102448.28;5034739;27;96477;-30
2022/10/04 00:05:49;;;;;;;11.88;4.32;;;;;;;12.40;83.63;102455.72;5035647;28;96818;-29
2022/10/04 00:08:36;;;;;;;15.70;4.80;;;;;;;12.36;84.14;102454.06;5033907;28;101105;-30
2022/10/04 00:11:25;;;;;;;13.95;4.97;;;;;;;12.36;84.24;102457.66;5050874;27;98853;-30
2022/10/04 00:13:58;;;;;;;8.90;3.97;;;;;;;12.37;84.05;102455.81;5035371;28;96593;-29
2022/10/04 00:16:34;;;;;;;13.07;4.30;;;;;;;12.38;84.56;102463.03;5050582;27;96982;-29
2022/10/04 00:19:18;;;;;;;8.13;3.92;;;;;;;12.39;84.18;102449.38;5050594;27;101143;-30
2022/10/04 00:21:54;;;;;;;9.85;3.85;;;;;;;12.39;84.14;102446.66;5035317;27;99358;-30
2022/10/04 00:24:22;;;;;;;8.90;3.90;;;;;;;12.37;84.10;102447.66;5035471;28;96492;-31
2022/10/04 00:26:47;;;;;;;14.00;3.75;;;;;;;12.35;84.65;102447.75;5035207;28;96854;-31
2022/10/04 00:29:25;;;;;;;11.20;3.72;;;;;;;12.37;84.30;102444.97;5034471;27;99491;-30
2022/10/04 00:32:13;;;;;;;6.15;3.45;;;;;;;12.36;84.40;102445.91;5050341;27;100893;-29
2022/10/04 00:34:49;;;;;;;11.80;3.53;;;;;;;12.31;84.32;102435.25;5022333;28;96799;-30
2022/10/04 00:37:15;;;;;;;11.10;3.22;;;;;;;12.31;84.42;102433.41;5033484;28;97062;-31
2022/10/04 00:39:43;;;;;;;6.13;3.50;;;;;;;12.27;84.43;102417.31;5050416;27;100880;-29
2022/10/04 00:42:18;;;;;;;15.02;4.05;;;;;;;12.28;84.47;102419.09;5016631;28;101210;-29
2022/10/04 00:44:52;;;;;;;13.57;3.42;;;;;;;12.27;84.41;102426.34;5034844;27;96649;-29
2022/10/04 00:47:39;;;;;;;7.18;3.38;;;;;;;12.28;84.32;102430.84;5050934;27;96726;-29
2022/10/04 00:50:30;;;;;;;7.68;3.10;;;;;;;12.26;84.54;102437.28;5034951;28;97981;-30
2022/10/04 00:52:58;;;;;;;10.63;3.70;;;;;;;12.23;84.40;102432.88;5032826;28;100869;-30
2022/10/04 00:55:43;;;;;;;6.13;3.08;;;;;;;12.21;84.43;102434.75;5050037;27;96728;-29
2022/10/04 00:58:26;;;;;;;7.70;3.35;;;;;;;12.22;84.50;102441.06;5050432;27;96819;-29
2022/10/04 01:00:53;;;;;;;5.47;2.65;;;;;;;12.22;84.66;102454.66;5034857;28;97696;-30
2022/10/04 01:03:30;;;;;;;8.18;3.75;;;;;;;12.22;84.21;102441.94;5033032;28;99779;-31
2022/10/04 01:06:02;;;;;;;6.63;3.30;;;;;;;12.21;84.05;102440.19;5050404;27;96681;-30
2022/10/04 01:08:34;;;;;;;7.25;2.90;;;;;;;12.18;84.69;102434.91;5033302;28;96718;-30
2022/10/04 01:11:01;;;;;;;7.57;2.95;;;;;;;12.17;84.56;102424.97;5034234;27;99550;-30
2022/10/04 01:13:30;;;;;;;10.45;3.75;;;;;;;12.14;84.38;102416.97;5034683;27;97379;-29
2022/10/04 01:16:02;;;;;;;10.75;3.95;;;;;;;12.12;84.60;102421.56;5036473;28;96936;-30
2022/10/04 01:18:31;;;;;;;7.38;3.45;;;;;;;12.12;84.76;102418.84;5037029;28;96794;-29
2022/10/04 01:20:58;;;;;;;5.82;3.70;;;;;;;12.09;84.72;102413.56;5052730;27;100947;-30
2022/10/04 01:23:43;;;;;;;12.50;4.28;;;;;;;12.07;84.65;102399.16;5053372;27;100910;-30
2022/10/04 01:26:33;;;;;;;8.85;3.38;;;;;;;12.03;84.81;102392.97;5053816;27;96547;-29
2022/10/04 01:29:06;;;;;;;7.22;3.35;;;;;;;11.97;84.81;102382.38;5038379;28;96605;-31
2022/10/04 01:31:34;;;;;;;5.80;3.30;;;;;;;11.99;84.84;102385.00;5053162;27;101094;-30
2022/10/04 01:34:01;;;;;;;5.80;3.50;;;;;;;11.98;85.02;102391.41;5036517;28;99247;-29
2022/10/04 01:36:27;;;;;;;14.85;4.28;;;;;;;11.95;84.83;102387.00;5037830;27;96689;-30
2022/10/04 01:38:54;;;;;;;8.45;3.60;;;;;;;11.92;84.94;102388.94;5038421;27;97270;-30
2022/10/04 01:41:28;;;;;;;8.18;3.70;;;;;;;11.92;84.96;102384.41;5036098;28;100718;-29
2022/10/04 01:43:59;;;;;;;7.07;3.95;;;;;;;11.93;84.86;102374.44;5052832;27;100873;-31
2022/10/04 01:46:31;;;;;;;14.27;4.45;;;;;;;11.88;84.63;102366.47;5053088;27;96689;-30
2022/10/04 01:49:00;;;;;;;9.52;3.83;;;;;;;11.87;84.81;102360.16;5036534;28;96807;-30
2022/10/04 01:51:53;;;;;;;11.15;3.53;;;;;;;11.86;85.15;102346.63;5036167;27;101478;-30
2022/10/04 01:54:29;;;;;;;11.25;3.75;;;;;;;11.83;85.10;102342.19;5037635;27;97661;-30
2022/10/04 01:57:05;;;;;;;10.93;3.60;;;;;;;11.81;85.11;102332.34;5037809;28;96535;-30
2022/10/04 01:59:38;;;;;;;11.50;5.00;;;;;;;11.77;85.28;102331.59;5037658;28;96658;-30
2022/10/04 02:02:18;;;;;;;11.85;4.22;;;;;;;11.76;85.31;102318.97;5035985;28;100867;-29
2022/10/04 02:04:51;;;;;;;16.05;4.60;;;;;;;11.73;85.19;102316.41;5035866;28;100742;-31
2022/10/04 02:07:17;;;;;;;11.15;4.05;;;;;;;11.73;85.46;102321.84;5053036;27;96613;-30
2022/10/04 02:09:46;;;;;;;10.52;5.07;;;;;;;11.76;85.21;102318.09;5019346;28;96828;-31
2022/10/04 02:12:17;;;;;;;12.10;4.18;;;;;;;11.74;85.20;102311.84;5052106;27;101080;-29
2022/10/04 02:14:51;;;;;;;9.90;4.50;;;;;;;11.72;85.40;102317.34;5052544;27;100899;-31
2022/10/04 02:17:19;;;;;;;9.52;4.35;;;;;;;11.71;85.95;102310.16;5037364;27;96733;-30
2022/10/04 02:19:45;;;;;;;12.50;4.55;;;;;;;11.73;85.61;102300.13;5036416;27;96885;-30
2022/10/04 02:22:11;;;;;;;9.77;4.45;;;;;;;11.69;85.48;102293.91;5052421;27;101412;-31
2022/10/04 02:24:40;;;;;;;10.40;4.95;;;;;;;11.69;85.29;102284.91;5036638;27;99236;-30
2022/10/04 02:27:06;;;;;;;10.52;4.45;;;;;;;11.66;85.82;102280.50;5035767;28;96738;-33
2022/10/04 02:29:31;;;;;;;13.40;4.30;;;;;;;11.62;86.25;102273.41;5037331;27;96898;-30
2022/10/04 02:34:42;;;;;;;9.73;4.00;;;;;;;11.56;86.21;102264.66;5037167;28;97038;-31
2022/10/04 02:37:07;;;;;;;12.07;4.53;;;;;;;11.55;86.41;102266.50;5036607;27;96630;-32
2022/10/04 02:39:42;;;;;;;13.52;4.88;;;;;;;11.53;86.13;102262.06;5037341;27;96830;-31
2022/10/04 02:42:23;;;;;;;8.73;4.22;;;;;;;11.53;85.66;102267.50;5036547;28;99379;-32
2022/10/04 02:44:51;;;;;;;11.13;4.97;;;;;;;11.52;86.34;102263.03;5036332;27;99784;-30
2022/10/04 02:47:24;;;;;;;12.48;4.38;;;;;;;11.44;86.19;102256.13;5052304;27;96729;-31
2022/10/04 02:50:05;;;;;;;14.70;4.57;;;;;;;11.43;86.38;102254.31;5035473;28;96802;-31
2022/10/04 02:52:36;;;;;;;7.88;4.00;;;;;;;11.40;86.14;102251.75;5036386;27;99323;-29
2022/10/04 02:55:12;;;;;;;9.90;4.27;;;;;;;11.43;86.04;102245.31;5052472;27;100895;-30
2022/10/04 02:57:40;;;;;;;8.80;4.10;;;;;;;11.40;86.26;102240.03;5035464;28;96630;-30
2022/10/04 03:00:16;;;;;;;6.30;3.13;;;;;;;11.42;86.03;102239.00;5035386;28;96870;-30
2022/10/04 03:03:01;;;;;;;10.32;4.60;;;;;;;11.38;85.75;102229.22;5051345;27;101262;-30
2022/10/04 03:05:27;;;;;;;10.10;4.20;;;;;;;11.36;86.45;102230.25;5035682;28;97868;-30
2022/10/04 03:07:52;;;;;;;11.88;4.93;;;;;;;11.34;85.93;102232.13;5052196;27;96762;-30
2022/10/04 03:10:18;;;;;;;6.50;3.55;;;;;;;11.35;85.71;102232.09;5036626;28;96743;-30
2022/10/04 03:12:49;;;;;;;10.35;4.60;;;;;;;11.36;85.58;102231.13;5036204;27;101737;-30
2022/10/04 03:15:15;;;;;;;8.38;3.35;;;;;;;11.35;85.88;102228.50;5051153;27;100906;-30
2022/10/04 03:17:42;;;;;;;14.20;4.22;;;;;;;11.36;85.81;102225.69;5036397;28;96559;-31
2022/10/04 03:20:11;;;;;;;10.70;4.03;;;;;;;11.37;85.67;102227.47;5035289;28;96874;-30
2022/10/04 03:22:38;;;;;;;10.27;4.72;;;;;;;11.36;85.67;102225.69;5051532;27;98883;-30
2022/10/04 03:25:05;;;;;;;9.60;4.13;;;;;;;11.35;85.54;102228.50;5034393;28;100767;-29
2022/10/04 03:27:33;;;;;;;7.78;3.80;;;;;;;11.33;85.61;102217.69;5034344;28;96873;-29
2022/10/04 03:30:00;;;;;;;8.55;3.90;;;;;;;11.29;85.51;102209.75;5051704;27;96858;-30
2022/10/04 03:32:29;;;;;;;11.80;4.28;;;;;;;11.25;85.56;102207.19;5051287;27;98852;-30
2022/10/04 03:34:55;;;;;;;10.40;4.57;;;;;;;11.20;85.89;102206.50;5051333;27;101223;-30
2022/10/04 03:37:21;;;;;;;7.93;3.83;;;;;;;11.18;85.78;102199.38;5035439;27;96858;-30
2022/10/04 03:39:49;;;;;;;9.85;4.68;;;;;;;11.18;85.51;102205.69;5036150;28;96769;-30
2022/10/04 03:42:24;;;;;;;8.13;4.72;;;;;;;11.17;86.10;102200.31;5034296;28;100914;-30
2022/10/04 03:44:53;;;;;;;11.27;4.50;;;;;;;11.18;85.87;102207.50;5034381;28;100844;-30
2022/10/04 03:47:23;;;;;;;9.73;4.45;;;;;;;11.16;86.18;102198.56;5034504;28;96737;-30
2022/10/04 03:49:49;;;;;;;16.88;4.45;;;;;;;11.14;86.11;102179.63;5034435;28;96746;-31
2022/10/04 03:52:23;;;;;;;11.32;4.63;;;;;;;11.14;85.94;102184.16;5050425;27;101032;-30
2022/10/04 03:54:52;;;;;;;14.30;4.82;;;;;;;11.13;85.86;102183.28;5051123;27;101233;-30
2022/10/04 03:57:18;;;;;;;14.50;4.60;;;;;;;11.07;86.53;102182.66;5034360;28;96791;-30
2022/10/04 03:59:43;;;;;;;16.20;5.85;;;;;;;11.07;86.58;102185.38;5034339;28;96813;-31
2022/10/04 04:02:18;;;;;;;14.80;5.25;;;;;;;11.07;86.44;102194.38;5035409;27;97935;-31
2022/10/04 04:05:11;;;;;;;17.38;5.15;;;;;;;11.11;86.39;102192.41;5050603;27;101138;-31
2022/10/04 04:07:46;;;;;;;12.32;4.80;;;;;;;11.09;86.22;102197.03;5035811;28;97198;-30
2022/10/04 04:10:28;;;;;;;9.35;4.57;;;;;;;11.07;85.99;102191.69;5034514;28;96856;-30
2022/10/04 04:13:00;;;;;;;8.13;4.68;;;;;;;11.08;86.20;102203.41;5033993;28;99072;-30
2022/10/04 04:15:29;;;;;;;12.95;4.32;;;;;;;11.09;86.07;102200.63;5050189;27;100909;-30
2022/10/04 04:17:57;;;;;;;6.72;3.70;;;;;;;11.06;86.18;102189.94;5033485;28;96647;-30
2022/10/04 04:20:36;;;;;;;9.85;4.00;;;;;;;11.09;86.12;102205.19;5051047;27;96805;-29
2022/10/04 04:23:16;;;;;;;8.40;3.78;;;;;;;11.08;86.21;102188.00;5050650;27;100896;-30
2022/10/04 04:25:46;;;;;;;9.60;4.60;;;;;;;11.10;85.91;102194.25;5050600;27;100853;-30
2022/10/04 04:28:25;;;;;;;7.55;4.07;;;;;;;11.10;85.66;102201.50;5050873;27;96724;-30
2022/10/04 04:30:58;;;;;;;7.70;3.50;;;;;;;11.12;85.98;102205.03;5050886;27;96670;-30
2022/10/04 04:33:48;;;;;;;7.15;3.70;;;;;;;11.12;85.90;102205.91;5033672;28;100862;-30
2022/10/04 04:36:16;;;;;;;8.07;3.78;;;;;;;11.14;85.83;102197.72;5034957;27;99390;-30
2022/10/04 04:41:30;;;;;;;14.30;3.95;;;;;;;11.07;85.86;102185.38;5035481;28;96488;-30
2022/10/04 04:43:55;;;;;;;10.48;4.65;;;;;;;11.08;85.82;102193.44;5032673;28;100901;-30
2022/10/04 04:46:21;;;;;;;9.80;3.67;;;;;;;11.09;85.88;102188.91;5034895;27;97866;-30
2022/10/04 04:48:51;;;;;;;8.27;4.30;;;;;;;11.10;85.71;102198.78;5049380;27;96585;-30
2022/10/04 04:51:23;;;;;;;8.18;3.95;;;;;;;11.10;85.73;102201.50;5034925;28;96814;-30
2022/10/04 04:53:51;;;;;;;8.45;4.55;;;;;;;11.07;85.56;102188.09;5050139;27;101014;-30
2022/10/04 04:56:20;;;;;;;8.07;4.03;;;;;;;11.04;85.67;102191.81;5033124;28;100687;-30
2022/10/04 04:58:48;;;;;;;7.75;3.80;;;;;;;11.01;85.83;102194.63;5033495;28;96603;-30
2022/10/04 05:01:21;;;;;;;6.95;4.00;;;;;;;11.00;86.05;102196.47;5050815;27;96936;-29
2022/10/04 05:04:01;;;;;;;8.27;4.10;;;;;;;11.03;86.00;102203.59;5034648;28;97449;-31
2022/10/04 05:06:28;;;;;;;7.40;3.75;;;;;;;11.01;86.14;102200.97;5050052;27;98861;-30
2022/10/04 05:08:53;;;;;;;11.00;3.95;;;;;;;11.00;85.90;102198.31;5032799;28;96717;-31
2022/10/04 05:11:21;;;;;;;9.25;3.55;;;;;;;10.97;86.05;102193.91;5034242;27;97983;-29
2022/10/04 05:13:50;;;;;;;7.45;4.32;;;;;;;10.97;85.84;102198.44;5032727;28;101187;-30
2022/10/04 05:16:20;;;;;;;13.88;4.30;;;;;;;10.97;86.02;102193.03;5049449;27;100849;-30
2022/10/04 05:18:47;;;;;;;8.25;3.83;;;;;;;10.94;85.92;102198.53;5050101;27;96615;-30
2022/10/04 05:21:26;;;;;;;5.65;3.70;;;;;;;10.94;86.34;102194.03;5050062;27;96852;-30
2022/10/04 05:23:52;;;;;;;7.70;3.95;;;;;;;10.89;86.32;102192.44;5049706;27;101330;-30
2022/10/04 05:26:27;;;;;;;7.65;4.07;;;;;;;10.92;86.42;102185.06;5033193;28;101063;-30
2022/10/04 05:28:55;;;;;;;8.90;4.40;;;;;;;10.92;86.32;102192.34;5033079;28;97354;-29
2022/10/04 05:31:44;;;;;;;15.98;4.00;;;;;;;10.93;86.37;102200.38;5049923;27;96863;-30
2022/10/04 05:34:29;;;;;;;7.63;4.10;;;;;;;10.91;86.14;102187.84;5049231;27;101165;-30
2022/10/04 05:36:57;;;;;;;7.28;3.78;;;;;;;10.91;86.23;102182.41;5034505;27;97287;-30
2022/10/04 05:39:32;;;;;;;13.43;4.57;;;;;;;10.82;86.53;102176.44;5049778;27;96689;-30
2022/10/04 05:42:17;;;;;;;8.98;4.50;;;;;;;10.79;86.98;102178.38;5033004;28;96706;-29
2022/10/04 05:44:51;;;;;;;8.18;4.25;;;;;;;10.74;86.64;102175.84;5049637;27;100689;-30
2022/10/04 05:47:22;;;;;;;15.00;3.97;;;;;;;10.71;86.83;102169.69;5032669;28;100791;-30
2022/10/04 05:49:50;;;;;;;8.13;4.00;;;;;;;10.68;86.87;102170.72;5049624;27;96635;-30
2022/10/04 05:52:26;;;;;;;6.88;4.30;;;;;;;10.65;87.15;102169.94;5034570;27;96786;-31
2022/10/04 05:55:10;;;;;;;12.48;4.22;;;;;;;10.61;87.79;102185.44;5032458;28;98922;-30
2022/10/04 05:57:46;;;;;;;10.77;4.45;;;;;;;10.58;87.47;102174.72;5033977;28;98344;-29
2022/10/04 06:00:15;;;;;;;12.60;3.92;;;;;;;10.56;87.12;102166.66;5050278;27;96606;-30
2022/10/04 06:03:18;;;;;;;9.13;4.53;;;;;;;10.57;88.02;102162.13;5053077;27;96899;-31
2022/10/04 06:05:54;;;;;;;12.43;4.72;;;;;;;10.54;87.30;102157.72;5037371;28;98014;-30
2022/10/04 06:08:47;;;;;;;13.25;5.22;;;;;;;10.51;87.97;102165.06;5052734;27;100836;-29
2022/10/04 06:11:43;;;;;;;8.27;4.10;;;;;;;10.53;87.96;102171.31;5037627;28;96550;-30
2022/10/04 06:14:23;;;;;;;10.52;4.63;;;;;;;10.51;87.67;102168.69;5037400;27;96524;-30
2022/10/04 06:17:10;;;;;;;11.25;5.80;;;;;;;10.50;87.49;102164.19;5051823;27;101352;-29
2022/10/04 06:20:12;;;;;;;10.65;4.15;;;;;;;10.51;87.99;102165.06;5037264;28;99163;-29
2022/10/04 06:22:45;;;;;;;12.32;4.78;;;;;;;10.49;87.74;102170.56;5037688;28;96507;-30
2022/10/04 06:25:25;;;;;;;11.18;5.22;;;;;;;10.45;87.60;102152.66;5035631;28;96895;-29
2022/10/04 06:28:17;;;;;;;12.90;5.45;;;;;;;10.51;87.93;102162.34;5051923;27;101364;-31
2022/10/04 06:31:20;;;;;;;13.98;5.90;;;;;;;10.44;87.37;102153.63;5036856;28;97811;-31
2022/10/04 06:33:46;;;;;;;17.15;6.57;;;;;;;10.43;87.53;102168.09;5012496;27;96781;-30
2022/10/04 06:36:36;;;;;;;17.45;5.65;;;;;;;10.38;87.91;102156.56;5037148;27;96887;-31
2022/10/04 06:39:25;;;;;;;12.07;5.60;;;;;;;10.34;87.99;102155.78;5036625;28;99374;-30
2022/10/04 06:42:15;;;;;;;14.40;5.93;;;;;;;10.34;88.11;102155.78;5035229;28;100812;-30
2022/10/04 06:45:16;;;;;;;13.75;4.70;;;;;;;10.34;88.23;102153.06;5052444;27;96626;-30
2022/10/04 06:47:59;;;;;;;12.05;5.32;;;;;;;10.38;88.13;102149.31;5031655;28;97016;-30
2022/10/04 06:50:44;;;;;;;6.50;4.07;;;;;;;10.36;87.78;102142.19;5052031;27;101061;-32
2022/10/04 06:53:21;;;;;;;6.35;3.72;;;;;;;10.40;88.37;102157.38;5052141;27;100753;-30
2022/10/04 06:56:17;;;;;;;12.63;4.47;;;;;;;10.43;88.20;102157.25;5051809;27;96802;-30
2022/10/04 06:59:20;;;;;;;19.25;5.47;;;;;;;10.42;88.51;102147.38;5036687;28;96649;-30
2022/10/04 07:01:56;;;;;;;;;;;;;;;10.45;88.75;102151.78;5037073;28;97896;-29
2022/10/04 07:04:29;;;;;;;8.02;3.65;;;;;;;10.45;88.51;102152.66;5034971;28;100951;-30
2022/10/04 07:07:23;;;;;;;13.45;4.18;;;;;;;10.46;88.32;102143.56;5051905;27;97882;-30
2022/10/04 07:09:53;;;;;;;9.80;4.53;;;;;;;10.47;88.51;102142.66;5036752;28;96626;-29
2022/10/04 07:12:18;;;;;;;7.03;3.78;;;;;;;10.49;89.01;102142.59;5050615;27;100938;-31
2022/10/04 07:14:49;;;;;;;7.97;4.55;;;;;;;10.51;88.63;102147.00;5036599;27;97334;-30
2022/10/04 07:17:31;;;;;;;10.40;4.60;;;;;;;10.58;89.19;102148.53;5035228;28;96597;-32
2022/10/04 07:19:57;;;;;;;10.95;4.22;;;;;;;10.62;89.36;102141.13;5036730;27;96729;-30
2022/10/04 07:22:44;;;;;;;11.73;4.93;;;;;;;10.71;88.85;102148.00;5051030;27;100775;-31
2022/10/04 07:25:48;;;;;;;11.38;3.92;;;;;;;10.81;88.34;102152.97;5034539;28;100777;-30
2022/10/04 07:31:10;;;;;;;7.38;3.88;;;;;;;10.97;87.96;102155.06;5036450;28;96761;-29
2022/10/04 07:33:43;;;;;;;7.28;3.85;;;;;;;11.08;87.83;102152.75;5036160;27;97595;-30
2022/10/04 07:36:17;;;;;;;12.00;4.95;;;;;;;11.15;87.32;102154.25;5051045;27;101154;-30
2022/10/04 07:38:50;;;;;;;9.52;4.35;;;;;;;11.23;87.45;102145.81;5051672;27;96636;-29
2022/10/04 07:41:25;;;;;;;14.38;3.95;;;;;;;11.32;86.72;102149.94;5035072;28;96850;-30
2022/10/04 07:43:55;;;;;;;10.45;4.90;;;;;;;11.34;86.69;102148.03;5035503;28;99353;-29
2022/10/04 07:47:13;;;;;;;8.45;4.57;;;;;;;11.44;86.50;102142.16;5051081;27;100996;-29
2022/10/04 07:49:39;;;;;;;9.23;4.70;;;;;;;11.48;85.90;102146.47;5028749;28;96884;-31
2022/10/04 07:52:17;;;;;;;13.40;4.53;;;;;;;11.56;86.09;102154.28;5034587;28;97030;-30
2022/10/04 07:55:01;;;;;;;12.00;5.47;;;;;;;11.65;85.81;102161.13;5051102;27;101381;-29
2022/10/04 07:57:53;;;;;;;9.20;4.32;;;;;;;11.69;85.36;102166.34;5051143;27;101052;-30
2022/10/04 08:00:27;;;;;;;10.45;3.95;;;;;;;11.69;85.10;102173.63;5035843;28;96506;-31
2022/10/04 08:03:21;;;;;;;9.10;4.50;;;;;;;11.72;85.03;102165.31;5051391;27;96709;-31
2022/10/04 08:05:57;;;;;;;13.70;5.25;;;;;;;11.74;84.53;102158.00;5033855;28;98965;-29
2022/10/04 08:08:40;;;;;;;6.95;4.32;;;;;;;11.78;85.21;102158.75;5051180;27;100548;-30
2022/10/04 08:11:26;;;;;;;11.98;5.05;;;;;;;11.78;84.99;102166.91;5051084;27;96624;-29
2022/10/04 08:14:19;;;;;;;12.25;5.13;;;;;;;11.78;85.12;102166.91;5035258;28;96615;-30
2022/10/04 08:17:07;;;;;;;12.52;5.20;;;;;;;11.76;85.31;102171.50;5034289;28;98857;-30
2022/10/04 08:19:46;;;;;;;10.20;4.60;;;;;;;11.77;85.01;102168.72;5035367;28;97831;-30
2022/10/04 08:22:31;;;;;;;9.13;4.65;;;;;;;11.80;85.19;102173.16;5051124;27;96538;-29
2022/10/04 08:25:18;;;;;;;9.30;4.85;;;;;;;11.83;85.32;102165.72;5035183;28;96798;-30
2022/10/04 08:30:54;;;;;;;9.32;4.95;;;;;;;11.95;85.31;102148.03;5034093;28;97029;-33
2022/10/04 08:34:01;;;;;;;14.48;4.47;;;;;;;12.05;85.06;102151.19;5031655;28;96753;-31
2022/10/04 08:36:51;;;;;;;9.07;4.25;;;;;;;12.15;85.00;102143.47;5033617;28;96675;-32
2022/10/04 08:40:02;;;;;;;13.05;5.28;;;;;;;12.24;84.87;102153.91;5032166;28;100678;-29
2022/10/04 08:42:57;;;;;;;9.45;4.72;;;;;;;12.29;84.87;102149.13;5033430;28;101125;-29
2022/10/04 08:46:02;;;;;;;10.35;4.57;;;;;;;12.37;84.83;102143.34;5023941;28;96816;-29
2022/10/04 08:48:58;;;;;;;9.98;4.35;;;;;;;12.41;84.29;102148.53;5033587;28;96854;-30
2022/10/04 08:51:56;;;;;;;6.95;3.92;;;;;;;12.45;84.33;102150.16;5032705;28;101254;-30
2022/10/04 08:55:04;;;;;;;9.95;3.95;;;;;;;12.49;84.33;102149.06;5030993;28;100765;-33
2022/10/04 08:58:00;;;;;;;10.40;4.75;;;;;;;12.57;84.60;102153.25;5021339;28;97187;-31
2022/10/04 09:00:47;;;;;;;9.55;4.15;;;;;;;12.65;84.21;102148.31;5033958;28;96668;-29
2022/10/04 09:04:00;;;;;;;9.65;4.32;;;;;;;12.69;84.15;102155.38;5034204;28;99525;-30
2022/10/04 09:06:39;;;;;;;14.35;4.25;;;;;;;12.77;83.84;102152.25;5026254;28;96814;-30
2022/10/04 09:09:30;;;;;;;14.07;5.03;;;;;;;12.84;83.45;102156.44;5033307;28;96668;-30
2022/10/04 09:12:34;;;;;;;10.27;4.03;;;;;;;12.95;83.55;102163.09;5034606;28;96822;-29
2022/10/04 09:15:27;;;;;;;13.85;4.32;;;;;;;12.99;82.90;102158.41;5028568;28;99275;-30
2022/10/04 09:18:11;;;;;;;10.85;4.78;;;;;;;13.10;82.95;102150.53;5032936;28;100742;-30
2022/10/04 09:20:50;;;;;;;7.35;3.55;;;;;;;13.15;82.75;102156.63;5035013;28;96470;-30
2022/10/04 09:23:32;;;;;;;12.05;4.70;;;;;;;13.26;82.64;102147.06;5034746;28;96599;-29
2022/10/04 09:26:17;;;;;;;9.93;3.78;;;;;;;13.35;82.26;102143.88;5034267;28;98049;-30
2022/10/04 09:28:46;;;;;;;7.57;3.60;;;;;;;13.46;81.56;102141.44;5032865;28;101124;-30
2022/10/04 09:31:20;;;;;;;16.25;4.13;;;;;;;13.57;81.20;102143.63;5033076;28;96715;-30
2022/10/04 09:34:23;;;;;;;9.13;4.28;;;;;;;13.66;80.75;102137.69;5033306;27;96737;-29
2022/10/04 09:37:10;;;;;;;8.68;4.20;;;;;;;13.90;79.40;102130.03;5037483;28;97943;-31
2022/10/04 09:39:48;;;;;;;10.48;4.05;;;;;;;14.27;79.79;102124.34;5037832;28;97351;-30
2022/10/04 09:42:26;;;;;;;9.15;4.03;;;;;;;14.62;78.52;102108.72;5037584;28;96620;-29
2022/10/04 09:45:20;;;;;;;10.90;4.18;;;;;;;14.96;76.21;102104.00;5036332;28;96909;-29
2022/10/04 09:47:54;;;;;;;9.57;4.30;;;;;;;15.12;75.65;102106.69;5037834;28;97930;-29
2022/10/04 09:50:38;;;;;;;12.40;3.80;;;;;;;15.08;76.85;102109.59;5037523;28;98707;-29
2022/10/04 09:53:19;;;;;;;10.65;4.15;;;;;;;14.93;74.84;102102.34;5037665;28;96493;-30
2022/10/04 09:56:11;;;;;;;11.30;3.63;;;;;;;14.84;76.24;102106.47;5037955;28;96871;-30
2022/10/04 09:59:17;;;;;;;9.00;4.10;;;;;;;14.99;76.88;102109.25;5036103;28;100834;-29
2022/10/04 10:02:08;;;;;;;10.40;4.72;;;;;;;15.57;76.06;102124.84;5037925;28;97844;-31
2022/10/04 10:04:52;;;;;;;11.93;4.53;;;;;;;15.98;74.98;102123.22;5036051;28;96718;-31
2022/10/04 10:07:44;;;;;;;10.07;4.07;;;;;;;16.40;73.59;102118.66;5037742;28;96652;-29
2022/10/04 10:13:39;;;;;;;9.27;3.78;;;;;;;16.63;70.79;102114.41;5035590;28;96954;-31
2022/10/04 10:16:17;;;;;;;5.88;2.88;;;;;;;16.74;69.33;102111.84;5037307;28;96767;-30
2022/10/04 10:19:13;;;;;;;9.15;3.85;;;;;;;16.88;70.14;102103.59;5035864;28;96870;-30
2022/10/04 10:21:46;;;;;;;11.43;3.78;;;;;;;17.10;69.97;102107.59;5035589;28;100874;-29
2022/10/04 10:24:35;;;;;;;7.70;3.45;;;;;;;17.10;70.72;102100.25;5037278;28;99316;-30
2022/10/04 10:27:25;;;;;;;9.32;3.72;;;;;;;17.05;70.99;102109.78;5037319;28;96790;-30
2022/10/04 10:30:29;;;;;;;9.55;3.72;;;;;;;17.01;70.30;102106.38;5037665;28;96527;-29
2022/10/04 10:33:14;;;;;;;7.63;3.25;;;;;;;16.86;68.58;102104.69;5006488;28;98220;-30
2022/10/04 10:36:04;;;;;;;7.93;3.08;;;;;;;17.05;69.08;102093.38;5035440;28;101164;-30
2022/10/04 10:38:55;;;;;;;6.82;2.90;;;;;;;17.14;69.46;102090.00;5035307;28;96584;-29
2022/10/04 10:42:05;;;;;;;5.65;2.75;;;;;;;17.26;66.86;102096.47;5036771;28;96636;-29
2022/10/04 10:45:15;;;;;;;8.70;3.35;;;;;;;17.29;67.34;102088.03;5026822;28;99388;-29
2022/10/04 10:47:52;;;;;;;10.73;3.67;;;;;;;17.36;69.08;102092.97;5035104;28;100722;-30
2022/10/04 10:50:57;;;;;;;11.23;3.35;;;;;;;17.40;66.65;102090.91;5035631;28;97208;-30
2022/10/04 10:53:47;;;;;;;8.88;3.25;;;;;;;17.69;67.91;102094.31;5036660;28;96683;-30
2022/10/04 10:56:31;;;;;;;8.13;3.00;;;;;;;17.96;64.32;102096.06;5036331;28;98302;-29
2022/10/04 10:59:15;;;;;;;7.10;2.67;;;;;;;18.25;66.57;102103.00;5036895;28;97883;-33
2022/10/04 11:02:15;;;;;;;5.90;2.95;;;;;;;18.40;64.84;102100.13;5037147;27;96894;-29
2022/10/04 11:05:03;;;;;;;15.52;3.72;;;;;;;18.22;63.21;102100.50;5014182;28;97066;-30
2022/10/04 11:07:50;;;;;;;10.20;3.05;;;;;;;18.18;65.79;102098.09;5032017;28;101019;-31
2022/10/04 11:11:08;;;;;;;6.40;3.20;;;;;;;18.01;66.06;102093.84;5036444;28;97869;-29
2022/10/04 11:14:10;;;;;;;9.00;2.97;;;;;;;18.10;66.36;102093.19;5026181;27;96868;-30
2022/10/04 11:16:46;;;;;;;10.20;3.22;;;;;;;18.04;65.55;102096.38;5034771;28;96791;-31
2022/10/04 11:19:33;;;;;;;8.88;3.17;;;;;;;17.96;66.40;102101.56;5034503;28;101484;-31
2022/10/04 11:22:22;;;;;;;9.40;2.88;;;;;;;17.77;64.56;102113.81;5036238;28;97152;-29
2022/10/04 11:25:06;;;;;;;6.80;3.03;;;;;;;17.71;66.16;102111.53;5036405;28;96575;-29
2022/10/04 11:27:44;;;;;;;8.70;3.00;;;;;;;17.74;65.16;102103.06;5036832;28;96821;-30
2022/10/04 11:30:24;;;;;;;7.88;2.60;;;;;;;17.86;65.46;102100.47;5034630;28;100976;-31
2022/10/04 11:33:10;;;;;;;7.95;3.60;;;;;;;17.75;65.53;102093.84;5034671;28;100830;-29
2022/10/04 11:36:21;;;;;;;10.27;3.45;;;;;;;17.64;66.37;102101.97;5035790;28;96806;-29
2022/10/04 11:38:52;;;;;;;7.50;3.67;;;;;;;17.73;66.59;102101.34;5034499;28;96774;-30
2022/10/04 11:41:33;;;;;;;9.05;3.42;;;;;;;18.17;65.85;102088.13;5035812;28;99285;-29
2022/10/04 11:44:36;;;;;;;9.40;3.75;;;;;;;18.42;64.94;102087.16;5033806;28;101557;-30
2022/10/04 11:47:24;;;;;;;9.68;3.45;;;;;;;18.51;63.58;102081.00;5036129;28;96497;-30
2022/10/04 11:49:59;;;;;;;10.90;3.85;;;;;;;18.56;62.81;102084.25;5034544;28;96764;-29
2022/10/04 11:52:56;;;;;;;10.43;3.50;;;;;;;18.66;64.57;102077.09;5035458;28;98066;-29
2022/10/04 11:55:43;;;;;;;5.60;2.85;;;;;;;18.89;63.86;102086.31;5013733;28;97817;-29
2022/10/04 11:58:33;;;;;;;12.02;3.83;;;;;;;19.20;63.28;102081.19;5034950;27;96513;-29
2022/10/04 12:01:18;;;;;;;8.10;3.53;;;;;;;19.38;60.19;102080.72;5034427;28;96744;-30
2022/10/04 12:04:15;;;;;;;8.07;3.22;;;;;;;19.39;61.69;102060.53;5034769;27;99472;-30
2022/10/04 12:06:59;;;;;;;11.73;3.72;;;;;;;19.39;61.10;102064.13;5035326;28;99279;-31
2022/10/04 12:09:34;;;;;;;12.27;3.88;;;;;;;19.42;58.09;102055.63;5035851;28;96524;-31
2022/10/04 12:12:36;;;;;;;9.27;3.63;;;;;;;19.45;60.27;102065.50;5034331;28;96641;-30
2022/10/04 12:15:02;;;;;;;7.13;3.08;;;;;;;19.27;59.65;102062.38;5034701;27;97411;-30
2022/10/04 12:17:46;;;;;;;11.75;4.15;;;;;;;19.42;60.52;102066.63;5035041;28;97670;-29
2022/10/04 12:20:26;;;;;;;8.70;3.45;;;;;;;19.48;61.47;102060.66;5035261;28;96772;-30
2022/10/04 12:22:54;;;;;;;14.73;4.22;;;;;;;19.45;61.18;102060.91;5034402;28;96779;-29
2022/10/04 12:25:34;;;;;;;10.02;3.95;;;;;;;19.61;62.08;102056.91;5034966;28;96791;-31
2022/10/04 12:28:15;;;;;;;8.07;3.15;;;;;;;19.51;60.65;102043.91;5034909;28;97374;-29
2022/10/04 12:30:57;;;;;;;10.88;3.05;;;;;;;19.69;61.79;102041.59;5033359;28;96683;-30